Angleton, Texas
Current Conditions -  °F | °C
As of 9:53 AM on Thursday 23 Oct 2014 (Local Time) from KLBX Reporting Station
Clear Clear  
Wind Chill: 68°   Ceiling: Unl
Heat Index: 68°   Visibility: 10mi
Dew Point: 61°   Wind: 6mph
Humidity: 78%   Direction: 50°NE
Pressure: 30.12"   Gusts: NA
Location:  29.16°N, 95.43°W
Report Text: KLBX 231453Z AUTO 05005KT 10SM CLR 20/16 A3012 RMK AO2 SLP201 T02000161 53019
Loading
Personal Weather Stations






























Interactive Weather Map
Tropical Storm Tracking
New forecast layout! Learn more

10-Day Weather Forecast

Advertisements
Track Severe Weather on mobile